Liberty Townshp, Ohio
Current Conditions -  °F | °C
As of 11:53 AM on Thursday 27 Nov 2014 (Local Time) from KHAO Reporting Station
Overcast Overcast  
Wind Chill: 24°   Ceiling: 3300
Heat Index: 34°   Visibility: 10mi
Dew Point: 22°   Wind: 16mph
Humidity: 61%   Direction: 300°WNW
Pressure: 30.3"   Gusts: NA
Location:  39.3413°N, 84.4053°W
Report Text: KHAO 271653Z AUTO 30014KT 10SM BKN033 OVC055 01/M06 A3030 RMK AO2 SLP266 T00111056
Loading
Personal Weather Stations






























Interactive Weather Map New forecast layout! Learn more

10-Day Weather Forecast

Advertisements
Track Severe Weather on mobile